sensor_id;sensor_type;location;lat;lon;timestamp;pressure;altitude;pressure_sealevel;temperature;humidity
71764;BME280;59602;52.142;5.408;2023-09-19T00:00:21;100803.41;;;15.71;97.34
71764;BME280;59602;52.142;5.408;2023-09-19T00:02:54;100806.97;;;15.68;97.76
71764;BME280;59602;52.142;5.408;2023-09-19T00:05:21;100813.28;;;15.65;97.83
71764;BME280;59602;52.142;5.408;2023-09-19T00:07:51;100814.47;;;15.64;97.56
71764;BME280;59602;52.142;5.408;2023-09-19T00:10:21;100807.44;;;15.63;97.70
71764;BME280;59602;52.142;5.408;2023-09-19T00:12:51;100818.81;;;15.61;97.99
71764;BME280;59602;52.142;5.408;2023-09-19T00:15:27;100825.84;;;15.62;97.61
71764;BME280;59602;52.142;5.408;2023-09-19T00:17:55;100826.69;;;15.59;97.86
71764;BME280;59602;52.142;5.408;2023-09-19T00:20:22;100826.31;;;15.57;98.31
71764;BME280;59602;52.142;5.408;2023-09-19T00:22:50;100832.19;;;15.55;98.11
71764;BME280;59602;52.142;5.408;2023-09-19T00:25:18;100824.34;;;15.57;97.97
71764;BME280;59602;52.142;5.408;2023-09-19T00:27:45;100828.28;;;15.56;98.25
71764;BME280;59602;52.142;5.408;2023-09-19T00:30:14;100826.72;;;15.55;98.12
71764;BME280;59602;52.142;5.408;2023-09-19T00:32:43;100831.03;;;15.56;98.36
71764;BME280;59602;52.142;5.408;2023-09-19T00:35:10;100837.28;;;15.57;97.86
71764;BME280;59602;52.142;5.408;2023-09-19T00:37:37;100834.94;;;15.55;98.08
71764;BME280;59602;52.142;5.408;2023-09-19T00:40:08;100835.38;;;15.54;98.29
71764;BME280;59602;52.142;5.408;2023-09-19T00:42:43;100841.25;;;15.52;98.06
71764;BME280;59602;52.142;5.408;2023-09-19T00:45:11;100836.97;;;15.51;97.90
71764;BME280;59602;52.142;5.408;2023-09-19T00:47:39;100836.97;;;15.51;98.15
71764;BME280;59602;52.142;5.408;2023-09-19T00:50:08;100836.19;;;15.51;98.21
71764;BME280;59602;52.142;5.408;2023-09-19T00:52:38;100844.00;;;15.52;98.65
71764;BME280;59602;52.142;5.408;2023-09-19T00:55:07;100837.31;;;15.53;98.59
71764;BME280;59602;52.142;5.408;2023-09-19T00:57:37;100834.59;;;15.53;98.66
71764;BME280;59602;52.142;5.408;2023-09-19T01:00:07;100844.41;;;15.51;98.81
71764;BME280;59602;52.142;5.408;2023-09-19T01:02:35;100858.09;;;15.51;98.90
71764;BME280;59602;52.142;5.408;2023-09-19T01:05:02;100852.22;;;15.52;98.90
71764;BME280;59602;52.142;5.408;2023-09-19T01:07:31;100854.19;;;15.52;99.27
71764;BME280;59602;52.142;5.408;2023-09-19T01:10:02;100848.72;;;15.52;99.42
71764;BME280;59602;52.142;5.408;2023-09-19T01:12:55;100859.25;;;15.53;99.43
71764;BME280;59602;52.142;5.408;2023-09-19T01:15:58;100854.19;;;15.52;99.21
71764;BME280;59602;52.142;5.408;2023-09-19T01:18:21;100853.41;;;15.51;99.35
71764;BME280;59602;52.142;5.408;2023-09-19T01:23:48;100853.47;;;15.48;99.43
71764;BME280;59602;52.142;5.408;2023-09-19T01:26:32;100859.34;;;15.46;99.13
71764;BME280;59602;52.142;5.408;2023-09-19T01:29:17;100857.00;;;15.45;99.20
71764;BME280;59602;52.142;5.408;2023-09-19T01:31:59;100851.97;;;15.43;99.25
71764;BME280;59602;52.142;5.408;2023-09-19T01:34:45;100853.94;;;15.43;99.34
71764;BME280;59602;52.142;5.408;2023-09-19T01:37:20;100859.41;;;15.43;99.23
71764;BME280;59602;52.142;5.408;2023-09-19T01:40:00;100852.38;;;15.42;99.15
71764;BME280;59602;52.142;5.408;2023-09-19T01:42:45;100861.34;;;15.42;99.39
71764;BME280;59602;52.142;5.408;2023-09-19T01:45:19;100856.25;;;15.44;99.54
71764;BME280;59602;52.142;5.408;2023-09-19T01:47:52;100864.47;;;15.44;99.77
71764;BME280;59602;52.142;5.408;2023-09-19T01:50:29;100867.19;;;15.44;100.00
71764;BME280;59602;52.142;5.408;2023-09-19T01:53:07;100865.66;;;15.43;100.00
71764;BME280;59602;52.142;5.408;2023-09-19T01:55:42;100868.03;;;15.41;100.00
71764;BME280;59602;52.142;5.408;2023-09-19T01:58:17;100867.28;;;15.41;100.00
71764;BME280;59602;52.142;5.408;2023-09-19T02:00:49;100871.19;;;15.40;100.00
71764;BME280;59602;52.142;5.408;2023-09-19T02:03:23;100865.69;;;15.40;100.00
71764;BME280;59602;52.142;5.408;2023-09-19T02:05:51;100873.53;;;15.41;100.00
71764;BME280;59602;52.142;5.408;2023-09-19T02:08:21;100871.94;;;15.40;100.00
71764;BME280;59602;52.142;5.408;2023-09-19T02:10:51;100871.19;;;15.40;100.00
71764;BME280;59602;52.142;5.408;2023-09-19T02:13:19;100862.97;;;15.40;100.00
71764;BME280;59602;52.142;5.408;2023-09-19T02:15:47;100860.63;;;15.38;100.00
71764;BME280;59602;52.142;5.408;2023-09-19T02:18:14;100861.06;;;15.36;100.00
71764;BME280;59602;52.142;5.408;2023-09-19T02:20:41;100861.81;;;15.37;100.00
71764;BME280;59602;52.142;5.408;2023-09-19T02:23:08;100857.94;;;15.34;99.91
71764;BME280;59602;52.142;5.408;2023-09-19T02:25:36;100863.81;;;15.33;99.95
71764;BME280;59602;52.142;5.408;2023-09-19T02:28:04;100864.66;;;15.30;99.87
71764;BME280;59602;52.142;5.408;2023-09-19T02:30:32;100870.91;;;15.30;99.88
71764;BME280;59602;52.142;5.408;2023-09-19T02:32:59;100866.63;;;15.29;99.94
71764;BME280;59602;52.142;5.408;2023-09-19T02:35:28;100868.53;;;15.32;100.00
71764;BME280;59602;52.142;5.408;2023-09-19T02:37:57;100866.56;;;15.33;99.31
71764;BME280;59602;52.142;5.408;2023-09-19T02:40:23;100876.75;;;15.32;99.26
71764;BME280;59602;52.142;5.408;2023-09-19T02:42:54;100875.63;;;15.30;98.72
71764;BME280;59602;52.142;5.408;2023-09-19T02:45:21;100874.13;;;15.25;99.10
71764;BME280;59602;52.142;5.408;2023-09-19T02:47:48;100881.91;;;15.27;99.30
71764;BME280;59602;52.142;5.408;2023-09-19T02:50:15;100871.00;;;15.23;98.55
71764;BME280;59602;52.142;5.408;2023-09-19T02:52:43;100872.19;;;15.22;97.48
71764;BME280;59602;52.142;5.408;2023-09-19T02:55:12;100878.88;;;15.18;97.43
71764;BME280;59602;52.142;5.408;2023-09-19T02:57:47;100882.81;;;15.17;97.35
71764;BME280;59602;52.142;5.408;2023-09-19T03:00:15;100886.78;;;15.12;96.48
71764;BME280;59602;52.142;5.408;2023-09-19T03:02:42;100878.97;;;15.10;97.23
71764;BME280;59602;52.142;5.408;2023-09-19T03:05:09;100878.63;;;15.08;96.78
71764;BME280;59602;52.142;5.408;2023-09-19T03:07:37;100880.97;;;15.06;96.91
71764;BME280;59602;52.142;5.408;2023-09-19T03:10:06;100878.66;;;15.05;96.72
71764;BME280;59602;52.142;5.408;2023-09-19T03:12:33;100872.81;;;15.03;96.75
71764;BME280;59602;52.142;5.408;2023-09-19T03:15:01;100872.47;;;15.01;96.44
71764;BME280;59602;52.142;5.408;2023-09-19T03:17:28;100870.13;;;14.99;95.33
71764;BME280;59602;52.142;5.408;2023-09-19T03:19:55;100871.75;;;14.93;95.37
71764;BME280;59602;52.142;5.408;2023-09-19T03:22:21;100880.78;;;14.90;95.85
71764;BME280;59602;52.142;5.408;2023-09-19T03:24:48;100872.97;;;14.88;95.76
71764;BME280;59602;52.142;5.408;2023-09-19T03:27:15;100874.97;;;14.84;95.27
71764;BME280;59602;52.142;5.408;2023-09-19T03:29:42;100877.75;;;14.81;95.27
71764;BME280;59602;52.142;5.408;2023-09-19T03:32:09;100878.16;;;14.79;94.47
71764;BME280;59602;52.142;5.408;2023-09-19T03:34:38;100879.34;;;14.78;95.76
71764;BME280;59602;52.142;5.408;2023-09-19T03:37:09;100884.47;;;14.76;94.59
71764;BME280;59602;52.142;5.408;2023-09-19T03:39:37;100885.63;;;14.75;94.83
71764;BME280;59602;52.142;5.408;2023-09-19T03:42:04;100877.84;;;14.73;94.82
71764;BME280;59602;52.142;5.408;2023-09-19T03:44:31;100868.88;;;14.69;94.85
71764;BME280;59602;52.142;5.408;2023-09-19T03:46:58;100871.25;;;14.67;93.88
71764;BME280;59602;52.142;5.408;2023-09-19T03:49:25;100857.97;;;14.66;94.19
71764;BME280;59602;52.142;5.408;2023-09-19T03:51:52;100865.84;;;14.60;94.36
71764;BME280;59602;52.142;5.408;2023-09-19T03:54:18;100868.63;;;14.57;94.18
71764;BME280;59602;52.142;5.408;2023-09-19T03:56:45;100878.00;;;14.56;93.88
71764;BME280;59602;52.142;5.408;2023-09-19T03:59:12;100877.63;;;14.53;93.89
71764;BME280;59602;52.142;5.408;2023-09-19T04:01:38;100886.25;;;14.48;93.78
71764;BME280;59602;52.142;5.408;2023-09-19T04:04:05;100896.41;;;14.48;94.10
71764;BME280;59602;52.142;5.408;2023-09-19T04:06:39;100894.13;;;14.43;93.87
71764;BME280;59602;52.142;5.408;2023-09-19T04:09:06;100898.06;;;14.38;93.65
71764;BME280;59602;52.142;5.408;2023-09-19T04:11:36;100898.44;;;14.40;94.29
71764;BME280;59602;52.142;5.408;2023-09-19T04:14:03;100900.81;;;14.38;92.84
71764;BME280;59602;52.142;5.408;2023-09-19T04:16:30;100913.75;;;14.30;92.86
71764;BME280;59602;52.142;5.408;2023-09-19T04:18:57;100906.75;;;14.29;93.04
71764;BME280;59602;52.142;5.408;2023-09-19T04:21:24;100906.00;;;14.25;92.86
71764;BME280;59602;52.142;5.408;2023-09-19T04:23:50;100907.16;;;14.24;93.23
71764;BME280;59602;52.142;5.408;2023-09-19T04:26:17;100921.25;;;14.23;93.62
71764;BME280;59602;52.142;5.408;2023-09-19T04:28:44;100927.50;;;14.23;93.42
71764;BME280;59602;52.142;5.408;2023-09-19T04:31:10;100927.88;;;14.22;93.76
71764;BME280;59602;52.142;5.408;2023-09-19T04:33:38;100933.34;;;14.22;93.51
71764;BME280;59602;52.142;5.408;2023-09-19T04:36:05;100930.63;;;14.22;93.42
71764;BME280;59602;52.142;5.408;2023-09-19T04:38:53;100941.97;;;14.20;93.17
71764;BME280;59602;52.142;5.408;2023-09-19T04:41:20;100949.38;;;14.20;92.97
71764;BME280;59602;52.142;5.408;2023-09-19T04:43:48;100959.16;;;14.17;92.71
71764;BME280;59602;52.142;5.408;2023-09-19T04:46:17;100957.63;;;14.12;92.05
71764;BME280;59602;52.142;5.408;2023-09-19T04:48:44;100954.50;;;14.14;92.68
71764;BME280;59602;52.142;5.408;2023-09-19T04:51:10;100953.75;;;14.14;93.06
71764;BME280;59602;52.142;5.408;2023-09-19T04:53:37;100944.75;;;14.13;93.23
71764;BME280;59602;52.142;5.408;2023-09-19T04:56:04;100947.13;;;14.11;93.24
71764;BME280;59602;52.142;5.408;2023-09-19T04:58:33;100940.47;;;14.08;92.79
71764;BME280;59602;52.142;5.408;2023-09-19T05:01:00;100943.22;;;14.08;92.93
71764;BME280;59602;52.142;5.408;2023-09-19T05:03:30;100940.91;;;14.07;92.20
71764;BME280;59602;52.142;5.408;2023-09-19T05:05:57;100944.78;;;14.06;92.83
71764;BME280;59602;52.142;5.408;2023-09-19T05:08:23;100954.19;;;14.05;92.61
71764;BME280;59602;52.142;5.408;2023-09-19T05:10:50;100952.22;;;14.05;92.75
71764;BME280;59602;52.142;5.408;2023-09-19T05:13:17;100957.31;;;14.03;92.46
71764;BME280;59602;52.142;5.408;2023-09-19T05:15:43;100952.22;;;14.02;92.39
71764;BME280;59602;52.142;5.408;2023-09-19T05:18:10;100956.16;;;14.01;91.92
71764;BME280;59602;52.142;5.408;2023-09-19T05:20:37;100956.16;;;14.01;92.66
71764;BME280;59602;52.142;5.408;2023-09-19T05:23:06;100955.38;;;14.00;92.54
71764;BME280;59602;52.142;5.408;2023-09-19T05:25:36;100952.28;;;13.98;92.78
71764;BME280;59602;52.142;5.408;2023-09-19T05:28:04;100959.28;;;13.99;93.08
71764;BME280;59602;52.142;5.408;2023-09-19T05:30:32;100962.78;;;14.00;93.08
71764;BME280;59602;52.142;5.408;2023-09-19T05:32:59;100956.53;;;13.99;92.05
71764;BME280;59602;52.142;5.408;2023-09-19T05:35:25;100948.34;;;13.99;92.98
71764;BME280;59602;52.142;5.408;2023-09-19T05:37:53;100946.81;;;13.98;92.91
71764;BME280;59602;52.142;5.408;2023-09-19T05:40:21;100939.38;;;13.99;92.86
71764;BME280;59602;52.142;5.408;2023-09-19T05:42:48;100942.88;;;13.99;92.98
71764;BME280;59602;52.142;5.408;2023-09-19T05:45:17;100949.09;;;14.03;93.01
71764;BME280;59602;52.142;5.408;2023-09-19T05:47:51;100949.09;;;14.03;92.68
71764;BME280;59602;52.142;5.408;2023-09-19T05:50:22;100947.53;;;14.06;93.20
71764;BME280;59602;52.142;5.408;2023-09-19T05:52:52;100958.84;;;14.08;92.88
71764;BME280;59602;52.142;5.408;2023-09-19T05:55:19;100956.09;;;14.08;93.40
71764;BME280;59602;52.142;5.408;2023-09-19T05:57:50;100957.69;;;14.09;92.93
71764;BME280;59602;52.142;5.408;2023-09-19T06:00:19;100968.19;;;14.14;93.46
71764;BME280;59602;52.142;5.408;2023-09-19T06:02:52;100958.78;;;14.19;93.06
71764;BME280;59602;52.142;5.408;2023-09-19T06:05:20;100963.81;;;14.24;92.87
71764;BME280;59602;52.142;5.408;2023-09-19T06:07:46;100966.16;;;14.22;92.67
71764;BME280;59602;52.142;5.408;2023-09-19T06:10:13;100977.91;;;14.22;93.51
71764;BME280;59602;52.142;5.408;2023-09-19T06:12:42;100978.25;;;14.24;93.15
71764;BME280;59602;52.142;5.408;2023-09-19T06:15:14;100984.91;;;14.23;92.50
71764;BME280;59602;52.142;5.408;2023-09-19T06:17:45;100986.06;;;14.26;92.84
71764;BME280;59602;52.142;5.408;2023-09-19T06:20:12;100982.56;;;14.29;93.11
71764;BME280;59602;52.142;5.408;2023-09-19T06:22:40;100986.41;;;14.35;93.64
71764;BME280;59602;52.142;5.408;2023-09-19T06:25:09;100989.88;;;14.39;93.74
71764;BME280;59602;52.142;5.408;2023-09-19T06:27:44;100987.91;;;14.40;93.60
71764;BME280;59602;52.142;5.408;2023-09-19T06:30:11;100986.00;;;14.40;93.73
71764;BME280;59602;52.142;5.408;2023-09-19T06:32:41;100989.44;;;14.44;93.12
71764;BME280;59602;52.142;5.408;2023-09-19T06:35:18;100973.41;;;14.46;93.26
71764;BME280;59602;52.142;5.408;2023-09-19T06:37:45;100975.31;;;14.53;93.45
71764;BME280;59602;52.142;5.408;2023-09-19T06:40:13;100972.97;;;14.59;92.93
71764;BME280;59602;52.142;5.408;2023-09-19T06:42:41;100979.97;;;14.63;92.62
71764;BME280;59602;52.142;5.408;2023-09-19T06:45:09;100972.13;;;14.65;92.65
71764;BME280;59602;52.142;5.408;2023-09-19T06:47:38;100975.66;;;14.66;92.74
71764;BME280;59602;52.142;5.408;2023-09-19T06:50:05;100975.25;;;14.67;92.28
71764;BME280;59602;52.142;5.408;2023-09-19T06:52:32;100973.66;;;14.70;91.99
71764;BME280;59602;52.142;5.408;2023-09-19T06:54:59;100979.50;;;14.72;92.16
71764;BME280;59602;52.142;5.408;2023-09-19T06:57:26;100983.00;;;14.72;92.42
71764;BME280;59602;52.142;5.408;2023-09-19T06:59:53;100979.13;;;14.73;92.58
71764;BME280;59602;52.142;5.408;2023-09-19T07:02:19;100972.41;;;14.78;92.51
71764;BME280;59602;52.142;5.408;2023-09-19T07:04:48;100970.09;;;14.77;92.02
71764;BME280;59602;52.142;5.408;2023-09-19T07:07:16;100975.94;;;14.79;91.75
71764;BME280;59602;52.142;5.408;2023-09-19T07:09:42;100973.53;;;14.84;91.76
71764;BME280;59602;52.142;5.408;2023-09-19T07:12:09;100972.69;;;14.91;93.00
71764;BME280;59602;52.142;5.408;2023-09-19T07:14:35;100973.81;;;14.93;92.99
71764;BME280;59602;52.142;5.408;2023-09-19T07:17:02;100985.88;;;15.00;92.56
71764;BME280;59602;52.142;5.408;2023-09-19T07:19:31;100983.13;;;15.03;92.76
71764;BME280;59602;52.142;5.408;2023-09-19T07:21:58;100990.53;;;15.06;92.52
71764;BME280;59602;52.142;5.408;2023-09-19T07:24:25;100984.97;;;15.13;92.31
71764;BME280;59602;52.142;5.408;2023-09-19T07:26:53;100997.44;;;15.18;91.81
71764;BME280;59602;52.142;5.408;2023-09-19T07:29:20;100996.25;;;15.23;92.10
71764;BME280;59602;52.142;5.408;2023-09-19T07:31:47;101000.91;;;15.26;91.63
71764;BME280;59602;52.142;5.408;2023-09-19T07:34:18;101002.44;;;15.27;91.84
71764;BME280;59602;52.142;5.408;2023-09-19T07:37:32;101004.75;;;15.32;91.03
71764;BME280;59602;52.142;5.408;2023-09-19T07:40:16;101004.31;;;15.37;90.41
71764;BME280;59602;52.142;5.408;2023-09-19T07:43:00;101008.16;;;15.43;91.22
71764;BME280;59602;52.142;5.408;2023-09-19T07:45:41;101004.13;;;15.51;90.79
71764;BME280;59602;52.142;5.408;2023-09-19T07:48:08;101003.31;;;15.54;90.28
71764;BME280;59602;52.142;5.408;2023-09-19T07:50:41;101011.13;;;15.56;90.16
71764;BME280;59602;52.142;5.408;2023-09-19T07:53:10;101010.25;;;15.63;90.04
71764;BME280;59602;52.142;5.408;2023-09-19T07:55:41;101002.38;;;15.68;89.83
71764;BME280;59602;52.142;5.408;2023-09-19T07:58:09;101004.72;;;15.70;89.53
71764;BME280;59602;52.142;5.408;2023-09-19T08:00:35;101003.91;;;15.69;89.61
71764;BME280;59602;52.142;5.408;2023-09-19T08:03:02;101007.84;;;15.68;90.02
71764;BME280;59602;52.142;5.408;2023-09-19T08:05:43;101012.94;;;15.70;89.91
71764;BME280;59602;52.142;5.408;2023-09-19T08:08:10;101013.72;;;15.74;88.46
71764;BME280;59602;52.142;5.408;2023-09-19T08:10:40;101010.88;;;15.81;89.15
71764;BME280;59602;52.142;5.408;2023-09-19T08:13:08;101016.66;;;15.87;89.58
71764;BME280;59602;52.142;5.408;2023-09-19T08:15:44;101013.03;;;15.93;89.37
71764;BME280;59602;52.142;5.408;2023-09-19T08:18:12;101012.25;;;15.96;90.12
71764;BME280;59602;52.142;5.408;2023-09-19T08:20:38;101020.03;;;15.98;89.24
71764;BME280;59602;52.142;5.408;2023-09-19T08:23:08;101000.47;;;15.96;88.21
71764;BME280;59602;52.142;5.408;2023-09-19T08:25:35;101016.88;;;16.00;88.86
71764;BME280;59602;52.142;5.408;2023-09-19T08:28:02;101013.31;;;16.03;87.93
71764;BME280;59602;52.142;5.408;2023-09-19T08:30:34;101013.28;;;16.06;88.07
71764;BME280;59602;52.142;5.408;2023-09-19T08:33:01;101006.94;;;16.09;87.46
71764;BME280;59602;52.142;5.408;2023-09-19T08:35:31;100998.28;;;16.14;87.56
71764;BME280;59602;52.142;5.408;2023-09-19T08:37:57;100994.69;;;16.17;87.73
71764;BME280;59602;52.142;5.408;2023-09-19T08:40:27;100995.44;;;16.22;87.87
71764;BME280;59602;52.142;5.408;2023-09-19T08:42:57;100997.75;;;16.23;87.04
71764;BME280;59602;52.142;5.408;2023-09-19T08:45:24;100998.06;;;16.29;88.03
71764;BME280;59602;52.142;5.408;2023-09-19T08:48:04;100991.31;;;16.33;87.87
71764;BME280;59602;52.142;5.408;2023-09-19T08:50:42;100996.69;;;16.40;88.73
71764;BME280;59602;52.142;5.408;2023-09-19T08:53:11;100999.41;;;16.44;87.39
71764;BME280;59602;52.142;5.408;2023-09-19T08:55:41;100994.69;;;16.45;86.95
71764;BME280;59602;52.142;5.408;2023-09-19T08:58:10;100997.78;;;16.47;86.68
71764;BME280;59602;52.142;5.408;2023-09-19T09:00:37;100996.63;;;16.48;86.92
71764;BME280;59602;52.142;5.408;2023-09-19T09:03:09;101000.78;;;16.56;87.38
71764;BME280;59602;52.142;5.408;2023-09-19T09:05:38;100994.03;;;16.60;87.24
71764;BME280;59602;52.142;5.408;2023-09-19T09:08:08;101003.00;;;16.65;85.23
71764;BME280;59602;52.142;5.408;2023-09-19T09:10:37;100988.78;;;16.70;86.17
71764;BME280;59602;52.142;5.408;2023-09-19T09:13:04;101006.75;;;16.74;85.64
71764;BME280;59602;52.142;5.408;2023-09-19T09:15:36;101001.97;;;16.78;85.68
71764;BME280;59602;52.142;5.408;2023-09-19T09:18:03;100999.63;;;16.80;84.73
71764;BME280;59602;52.142;5.408;2023-09-19T09:20:31;100996.09;;;16.80;85.24
71764;BME280;59602;52.142;5.408;2023-09-19T09:22:58;100988.59;;;16.84;85.48
71764;BME280;59602;52.142;5.408;2023-09-19T09:25:51;100983.38;;;16.90;84.72
71764;BME280;59602;52.142;5.408;2023-09-19T09:28:31;100989.53;;;16.97;84.30
71764;BME280;59602;52.142;5.408;2023-09-19T09:31:00;100981.22;;;17.01;83.33
71764;BME280;59602;52.142;5.408;2023-09-19T09:33:29;100986.22;;;17.06;83.68
71764;BME280;59602;52.142;5.408;2023-09-19T09:35:58;100979.03;;;17.12;84.43
71764;BME280;59602;52.142;5.408;2023-09-19T09:38:28;100977.34;;;17.18;83.80
71764;BME280;59602;52.142;5.408;2023-09-19T09:41:00;100979.13;;;17.29;84.27
71764;BME280;59602;52.142;5.408;2023-09-19T09:43:36;100980.19;;;17.35;83.63
71764;BME280;59602;52.142;5.408;2023-09-19T09:46:17;100977.38;;;17.38;83.28
71764;BME280;59602;52.142;5.408;2023-09-19T09:48:57;100963.97;;;17.40;81.76
71764;BME280;59602;52.142;5.408;2023-09-19T09:51:49;100971.31;;;17.47;82.23
71764;BME280;59602;52.142;5.408;2023-09-19T09:54:28;100974.34;;;17.53;81.83
71764;BME280;59602;52.142;5.408;2023-09-19T09:57:01;100974.69;;;17.55;80.91
71764;BME280;59602;52.142;5.408;2023-09-19T10:02:15;100968.25;;;17.61;82.11
71764;BME280;59602;52.142;5.408;2023-09-19T10:04:47;100974.81;;;17.68;82.03
71764;BME280;59602;52.142;5.408;2023-09-19T10:07:27;100971.91;;;17.75;80.48
71764;BME280;59602;52.142;5.408;2023-09-19T10:10:02;100973.34;;;17.83;80.32
71764;BME280;59602;52.142;5.408;2023-09-19T10:12:44;100963.03;;;17.87;81.47
71764;BME280;59602;52.142;5.408;2023-09-19T10:15:14;100970.16;;;17.84;80.69
71764;BME280;59602;52.142;5.408;2023-09-19T10:17:43;100983.97;;;17.81;80.80
71764;BME280;59602;52.142;5.408;2023-09-19T10:20:13;100974.31;;;17.73;77.96
71764;BME280;59602;52.142;5.408;2023-09-19T10:23:05;100985.03;;;17.67;79.63
71764;BME280;59602;52.142;5.408;2023-09-19T10:25:38;100981.53;;;17.67;78.22
71764;BME280;59602;52.142;5.408;2023-09-19T10:28:06;100961.06;;;17.68;77.43
71764;BME280;59602;52.142;5.408;2023-09-19T10:30:43;100955.34;;;17.78;77.54
71764;BME280;59602;52.142;5.408;2023-09-19T10:33:13;100957.53;;;17.87;78.60
71764;BME280;59602;52.142;5.408;2023-09-19T10:35:43;100964.56;;;17.88;78.19
71764;BME280;59602;52.142;5.408;2023-09-19T10:38:11;100956.94;;;17.96;77.83
71764;BME280;59602;52.142;5.408;2023-09-19T10:40:39;100937.59;;;17.99;77.73
71764;BME280;59602;52.142;5.408;2023-09-19T10:43:12;100939.25;;;18.13;78.15
71764;BME280;59602;52.142;5.408;2023-09-19T10:45:45;100940.97;;;18.23;78.42
71764;BME280;59602;52.142;5.408;2023-09-19T10:48:13;100928.78;;;18.24;76.33
71764;BME280;59602;52.142;5.408;2023-09-19T10:50:46;100941.41;;;18.22;77.89
71764;BME280;59602;52.142;5.408;2023-09-19T10:53:16;100932.47;;;18.18;76.67
71764;BME280;59602;52.142;5.408;2023-09-19T10:56:02;100927.38;;;18.16;76.82
71764;BME280;59602;52.142;5.408;2023-09-19T10:58:36;100913.72;;;18.29;78.06
71764;BME280;59602;52.142;5.408;2023-09-19T11:01:06;100924.38;;;18.43;76.19
71764;BME280;59602;52.142;5.408;2023-09-19T11:03:39;100930.28;;;18.58;76.95
71764;BME280;59602;52.142;5.408;2023-09-19T11:06:15;100925.91;;;18.61;76.68
71764;BME280;59602;52.142;5.408;2023-09-19T11:08:59;100900.56;;;18.66;76.46
71764;BME280;59602;52.142;5.408;2023-09-19T11:11:47;100901.16;;;18.74;76.48
71764;BME280;59602;52.142;5.408;2023-09-19T11:30:37;100914.44;;;18.62;75.91
71764;BME280;59602;52.142;5.408;2023-09-19T11:36:07;100909.22;;;18.52;77.53
71764;BME280;59602;52.142;5.408;2023-09-19T11:43:49;100899.06;;;18.49;75.72
71764;BME280;59602;52.142;5.408;2023-09-19T11:46:21;100894.84;;;18.44;75.81
71764;BME280;59602;52.142;5.408;2023-09-19T11:48:49;100884.50;;;18.48;75.62
71764;BME280;59602;52.142;5.408;2023-09-19T11:51:18;100888.72;;;18.53;75.29
71764;BME280;59602;52.142;5.408;2023-09-19T11:53:48;100887.00;;;18.59;74.92
71764;BME280;59602;52.142;5.408;2023-09-19T11:56:17;100881.50;;;18.59;75.92
71764;BME280;59602;52.142;5.408;2023-09-19T11:58:45;100883.47;;;18.58;74.52
71764;BME280;59602;52.142;5.408;2023-09-19T12:01:13;100891.31;;;18.60;75.45
71764;BME280;59602;52.142;5.408;2023-09-19T12:03:46;100887.34;;;18.61;75.32
71764;BME280;59602;52.142;5.408;2023-09-19T12:06:15;100894.16;;;18.56;74.17
71764;BME280;59602;52.142;5.408;2023-09-19T12:08:43;100904.91;;;18.51;73.46
71764;BME280;59602;52.142;5.408;2023-09-19T12:11:14;100912.06;;;18.48;73.54
71764;BME280;59602;52.142;5.408;2023-09-19T12:13:43;100899.50;;;18.47;73.22
71764;BME280;59602;52.142;5.408;2023-09-19T12:16:13;100902.16;;;18.51;73.47
71764;BME280;59602;52.142;5.408;2023-09-19T12:18:43;100901.72;;;18.52;74.08
71764;BME280;59602;52.142;5.408;2023-09-19T12:21:28;100886.84;;;18.50;74.70
71764;BME280;59602;52.142;5.408;2023-09-19T12:24:04;100900.28;;;18.48;73.63
71764;BME280;59602;52.142;5.408;2023-09-19T12:26:39;100891.66;;;18.45;74.25
71764;BME280;59602;52.142;5.408;2023-09-19T12:29:12;100892.09;;;18.44;74.99
71764;BME280;59602;52.142;5.408;2023-09-19T12:31:55;100905.84;;;18.44;75.40
71764;BME280;59602;52.142;5.408;2023-09-19T12:34:26;100897.50;;;18.48;74.90
71764;BME280;59602;52.142;5.408;2023-09-19T12:37:05;100895.88;;;18.50;75.60
71764;BME280;59602;52.142;5.408;2023-09-19T12:39:39;100892.69;;;18.52;73.76
71764;BME280;59602;52.142;5.408;2023-09-19T12:42:10;100886.31;;;18.55;74.43
71764;BME280;59602;52.142;5.408;2023-09-19T12:44:42;100890.72;;;18.52;74.05
71764;BME280;59602;52.142;5.408;2023-09-19T12:47:15;100912.84;;;18.49;75.38
71764;BME280;59602;52.142;5.408;2023-09-19T12:50:06;100905.53;;;18.42;74.91
71764;BME280;59602;52.142;5.408;2023-09-19T12:52:35;100904.16;;;18.34;75.00
71764;BME280;59602;52.142;5.408;2023-09-19T12:55:03;100901.31;;;18.37;76.58
71764;BME280;59602;52.142;5.408;2023-09-19T12:57:31;100904.41;;;18.39;76.23
71764;BME280;59602;52.142;5.408;2023-09-19T13:00:03;100892.97;;;18.41;76.06
71764;BME280;59602;52.142;5.408;2023-09-19T13:02:33;100892.34;;;18.50;76.17
71764;BME280;59602;52.142;5.408;2023-09-19T13:05:00;100903.59;;;18.55;74.47
71764;BME280;59602;52.142;5.408;2023-09-19T13:07:43;100902.31;;;18.60;76.18
71764;BME280;59602;52.142;5.408;2023-09-19T13:10:10;100901.09;;;18.61;75.19
71764;BME280;59602;52.142;5.408;2023-09-19T13:12:38;100890.34;;;18.66;76.52
71764;BME280;59602;52.142;5.408;2023-09-19T13:15:09;100885.50;;;18.71;77.21
71764;BME280;59602;52.142;5.408;2023-09-19T13:17:43;100899.81;;;18.65;76.24
71764;BME280;59602;52.142;5.408;2023-09-19T13:20:23;100898.00;;;18.59;76.69
71764;BME280;59602;52.142;5.408;2023-09-19T13:22:54;100915.91;;;18.51;76.45
71764;BME280;59602;52.142;5.408;2023-09-19T13:25:27;100920.75;;;18.46;78.98
71764;BME280;59602;52.142;5.408;2023-09-19T13:27:57;100907.16;;;18.39;79.34
71764;BME280;59602;52.142;5.408;2023-09-19T13:30:26;100905.00;;;18.31;80.92
71764;BME280;59602;52.142;5.408;2023-09-19T13:33:06;100915.25;;;18.30;81.59
71764;BME280;59602;52.142;5.408;2023-09-19T13:35:35;100904.16;;;18.34;79.19
71764;BME280;59602;52.142;5.408;2023-09-19T13:38:04;100894.59;;;18.38;78.74